sensor_id;sensor_type;location;lat;lon;timestamp;temperature;humidity
21722;DHT22;11023;48.274;7.794;2022-12-29T00:01:54;13.20;99.90
21722;DHT22;11023;48.274;7.794;2022-12-29T00:04:20;13.10;99.90
21722;DHT22;11023;48.274;7.794;2022-12-29T00:06:47;13.10;99.90
21722;DHT22;11023;48.274;7.794;2022-12-29T00:09:15;13.10;99.90
21722;DHT22;11023;48.274;7.794;2022-12-29T00:11:41;13.10;99.90
21722;DHT22;11023;48.274;7.794;2022-12-29T00:14:11;13.10;99.90
21722;DHT22;11023;48.274;7.794;2022-12-29T00:16:56;13.10;99.90
21722;DHT22;11023;48.274;7.794;2022-12-29T00:19:22;13.10;99.90
21722;DHT22;11023;48.274;7.794;2022-12-29T00:22:08;13.00;99.90
21722;DHT22;11023;48.274;7.794;2022-12-29T00:24:52;13.10;99.90
21722;DHT22;11023;48.274;7.794;2022-12-29T00:27:36;13.00;99.90
21722;DHT22;11023;48.274;7.794;2022-12-29T00:30:21;13.00;99.90
21722;DHT22;11023;48.274;7.794;2022-12-29T00:33:14;13.00;99.90
21722;DHT22;11023;48.274;7.794;2022-12-29T00:36:05;13.00;99.90
21722;DHT22;11023;48.274;7.794;2022-12-29T00:38:32;13.00;99.90
21722;DHT22;11023;48.274;7.794;2022-12-29T00:41:19;13.00;99.90
21722;DHT22;11023;48.274;7.794;2022-12-29T00:44:03;13.00;99.90
21722;DHT22;11023;48.274;7.794;2022-12-29T00:46:33;13.00;99.90
21722;DHT22;11023;48.274;7.794;2022-12-29T00:49:00;12.90;99.90
21722;DHT22;11023;48.274;7.794;2022-12-29T00:51:45;12.90;99.90
21722;DHT22;11023;48.274;7.794;2022-12-29T00:54:11;12.90;99.90
21722;DHT22;11023;48.274;7.794;2022-12-29T00:56:37;12.90;99.90
21722;DHT22;11023;48.274;7.794;2022-12-29T00:59:04;13.00;99.90
21722;DHT22;11023;48.274;7.794;2022-12-29T01:01:30;13.00;99.90
21722;DHT22;11023;48.274;7.794;2022-12-29T01:03:56;13.00;99.90
21722;DHT22;11023;48.274;7.794;2022-12-29T01:06:22;13.00;99.90
21722;DHT22;11023;48.274;7.794;2022-12-29T01:08:48;13.00;99.90
21722;DHT22;11023;48.274;7.794;2022-12-29T01:11:34;13.00;99.90
21722;DHT22;11023;48.274;7.794;2022-12-29T01:14:01;13.00;99.90
21722;DHT22;11023;48.274;7.794;2022-12-29T01:16:26;13.00;99.90
21722;DHT22;11023;48.274;7.794;2022-12-29T01:18:52;12.90;99.90
21722;DHT22;11023;48.274;7.794;2022-12-29T01:21:18;12.90;99.90
21722;DHT22;11023;48.274;7.794;2022-12-29T01:23:44;13.00;99.90
21722;DHT22;11023;48.274;7.794;2022-12-29T01:26:12;12.90;99.90
21722;DHT22;11023;48.274;7.794;2022-12-29T01:28:38;12.90;99.90
21722;DHT22;11023;48.274;7.794;2022-12-29T01:31:12;12.90;99.90
21722;DHT22;11023;48.274;7.794;2022-12-29T01:33:38;12.90;99.90
21722;DHT22;11023;48.274;7.794;2022-12-29T01:36:06;12.90;99.90
21722;DHT22;11023;48.274;7.794;2022-12-29T01:38:33;12.80;99.90
21722;DHT22;11023;48.274;7.794;2022-12-29T01:40:59;12.80;99.90
21722;DHT22;11023;48.274;7.794;2022-12-29T01:43:45;12.80;99.90
21722;DHT22;11023;48.274;7.794;2022-12-29T01:46:38;12.70;99.90
21722;DHT22;11023;48.274;7.794;2022-12-29T01:51:53;12.80;99.90
21722;DHT22;11023;48.274;7.794;2022-12-29T01:54:28;12.80;99.90
21722;DHT22;11023;48.274;7.794;2022-12-29T01:56:59;12.90;99.90
21722;DHT22;11023;48.274;7.794;2022-12-29T01:59:35;12.90;99.90
21722;DHT22;11023;48.274;7.794;2022-12-29T02:02:04;12.80;99.90
21722;DHT22;11023;48.274;7.794;2022-12-29T02:04:32;12.80;99.90
21722;DHT22;11023;48.274;7.794;2022-12-29T02:07:03;12.80;99.90
21722;DHT22;11023;48.274;7.794;2022-12-29T02:09:30;12.80;99.90
21722;DHT22;11023;48.274;7.794;2022-12-29T02:11:57;12.80;99.90
21722;DHT22;11023;48.274;7.794;2022-12-29T02:14:23;12.80;99.90
21722;DHT22;11023;48.274;7.794;2022-12-29T02:25:13;12.70;99.90
21722;DHT22;11023;48.274;7.794;2022-12-29T02:38:52;12.80;99.90
21722;DHT22;11023;48.274;7.794;2022-12-29T02:43:59;12.90;99.90
21722;DHT22;11023;48.274;7.794;2022-12-29T02:46:36;12.80;99.90
21722;DHT22;11023;48.274;7.794;2022-12-29T02:52:02;12.80;99.90
21722;DHT22;11023;48.274;7.794;2022-12-29T02:54:30;12.80;99.90
21722;DHT22;11023;48.274;7.794;2022-12-29T02:57:29;12.80;99.90
21722;DHT22;11023;48.274;7.794;2022-12-29T03:00:05;12.80;99.90
21722;DHT22;11023;48.274;7.794;2022-12-29T03:03:06;12.80;99.90
21722;DHT22;11023;48.274;7.794;2022-12-29T03:08:53;12.70;99.90
21722;DHT22;11023;48.274;7.794;2022-12-29T03:11:27;12.70;99.90
21722;DHT22;11023;48.274;7.794;2022-12-29T03:15:08;12.70;99.90
21722;DHT22;11023;48.274;7.794;2022-12-29T03:20:19;12.70;99.90
21722;DHT22;11023;48.274;7.794;2022-12-29T03:22:48;12.60;99.90
21722;DHT22;11023;48.274;7.794;2022-12-29T03:25:23;12.60;99.90
21722;DHT22;11023;48.274;7.794;2022-12-29T03:28:35;12.60;99.90
21722;DHT22;11023;48.274;7.794;2022-12-29T03:30:41;12.60;99.90
21722;DHT22;11023;48.274;7.794;2022-12-29T03:33:13;12.70;99.90
21722;DHT22;11023;48.274;7.794;2022-12-29T03:35:41;12.70;99.90
21722;DHT22;11023;48.274;7.794;2022-12-29T03:40:55;12.70;99.90
21722;DHT22;11023;48.274;7.794;2022-12-29T03:43:22;12.70;99.90
21722;DHT22;11023;48.274;7.794;2022-12-29T03:45:48;12.70;99.90
21722;DHT22;11023;48.274;7.794;2022-12-29T03:48:14;12.70;99.90
21722;DHT22;11023;48.274;7.794;2022-12-29T03:50:40;12.70;99.90
21722;DHT22;11023;48.274;7.794;2022-12-29T03:53:07;12.70;99.90
21722;DHT22;11023;48.274;7.794;2022-12-29T03:55:32;12.70;99.90
21722;DHT22;11023;48.274;7.794;2022-12-29T03:57:58;12.60;99.90
21722;DHT22;11023;48.274;7.794;2022-12-29T04:00:24;12.60;99.90
21722;DHT22;11023;48.274;7.794;2022-12-29T04:02:50;12.60;99.90
21722;DHT22;11023;48.274;7.794;2022-12-29T04:05:16;12.70;99.90
21722;DHT22;11023;48.274;7.794;2022-12-29T04:07:42;12.70;99.90
21722;DHT22;11023;48.274;7.794;2022-12-29T04:10:08;12.70;99.90
21722;DHT22;11023;48.274;7.794;2022-12-29T04:12:34;12.70;99.90
21722;DHT22;11023;48.274;7.794;2022-12-29T04:15:00;12.80;99.90
21722;DHT22;11023;48.274;7.794;2022-12-29T04:17:25;12.80;99.90
21722;DHT22;11023;48.274;7.794;2022-12-29T04:19:51;12.80;99.90
21722;DHT22;11023;48.274;7.794;2022-12-29T04:22:37;12.80;99.90
21722;DHT22;11023;48.274;7.794;2022-12-29T04:25:03;12.70;99.90
21722;DHT22;11023;48.274;7.794;2022-12-29T04:27:29;12.70;99.90
21722;DHT22;11023;48.274;7.794;2022-12-29T04:29:54;12.70;99.90
21722;DHT22;11023;48.274;7.794;2022-12-29T04:32:20;12.70;99.90
21722;DHT22;11023;48.274;7.794;2022-12-29T04:34:46;12.70;99.90
21722;DHT22;11023;48.274;7.794;2022-12-29T04:37:12;12.60;99.90
21722;DHT22;11023;48.274;7.794;2022-12-29T04:39:38;12.60;99.90
21722;DHT22;11023;48.274;7.794;2022-12-29T04:42:03;12.60;99.90
21722;DHT22;11023;48.274;7.794;2022-12-29T04:44:29;12.60;99.90
21722;DHT22;11023;48.274;7.794;2022-12-29T04:46:54;12.60;99.90
21722;DHT22;11023;48.274;7.794;2022-12-29T04:49:20;12.60;99.90
21722;DHT22;11023;48.274;7.794;2022-12-29T04:51:46;12.50;99.90
21722;DHT22;11023;48.274;7.794;2022-12-29T04:54:12;12.60;99.90
21722;DHT22;11023;48.274;7.794;2022-12-29T04:56:38;12.60;99.90
21722;DHT22;11023;48.274;7.794;2022-12-29T04:59:03;12.50;99.90
21722;DHT22;11023;48.274;7.794;2022-12-29T05:01:29;12.60;99.90
21722;DHT22;11023;48.274;7.794;2022-12-29T05:03:55;12.60;99.90
21722;DHT22;11023;48.274;7.794;2022-12-29T05:06:20;12.60;99.90
21722;DHT22;11023;48.274;7.794;2022-12-29T05:08:46;12.70;99.90
21722;DHT22;11023;48.274;7.794;2022-12-29T05:11:12;12.70;99.90
21722;DHT22;11023;48.274;7.794;2022-12-29T05:13:37;12.70;99.90
21722;DHT22;11023;48.274;7.794;2022-12-29T05:16:04;12.70;99.90
21722;DHT22;11023;48.274;7.794;2022-12-29T05:18:30;12.70;99.90
21722;DHT22;11023;48.274;7.794;2022-12-29T05:20:56;12.60;99.90
21722;DHT22;11023;48.274;7.794;2022-12-29T05:23:21;12.60;99.90
21722;DHT22;11023;48.274;7.794;2022-12-29T05:25:47;12.50;99.90
21722;DHT22;11023;48.274;7.794;2022-12-29T05:28:14;12.50;99.90
21722;DHT22;11023;48.274;7.794;2022-12-29T05:30:40;12.50;99.90
21722;DHT22;11023;48.274;7.794;2022-12-29T05:33:06;12.50;99.90
21722;DHT22;11023;48.274;7.794;2022-12-29T05:35:32;12.50;99.90
21722;DHT22;11023;48.274;7.794;2022-12-29T05:37:58;12.50;99.90
21722;DHT22;11023;48.274;7.794;2022-12-29T05:40:23;12.40;99.90
21722;DHT22;11023;48.274;7.794;2022-12-29T05:42:49;12.50;99.90
21722;DHT22;11023;48.274;7.794;2022-12-29T05:45:15;12.50;99.90
21722;DHT22;11023;48.274;7.794;2022-12-29T05:47:41;12.40;99.90
21722;DHT22;11023;48.274;7.794;2022-12-29T05:50:08;12.40;99.90
21722;DHT22;11023;48.274;7.794;2022-12-29T05:52:35;12.40;99.90
21722;DHT22;11023;48.274;7.794;2022-12-29T05:55:00;12.40;99.90
21722;DHT22;11023;48.274;7.794;2022-12-29T05:57:26;12.40;99.90
21722;DHT22;11023;48.274;7.794;2022-12-29T05:59:52;12.40;99.90
21722;DHT22;11023;48.274;7.794;2022-12-29T06:02:18;12.40;99.90
21722;DHT22;11023;48.274;7.794;2022-12-29T06:04:43;12.40;99.90
21722;DHT22;11023;48.274;7.794;2022-12-29T06:07:09;12.50;99.90
21722;DHT22;11023;48.274;7.794;2022-12-29T06:09:35;12.50;99.90
21722;DHT22;11023;48.274;7.794;2022-12-29T06:12:01;12.50;99.90
21722;DHT22;11023;48.274;7.794;2022-12-29T06:14:27;12.50;99.90
21722;DHT22;11023;48.274;7.794;2022-12-29T06:16:52;12.50;99.90
21722;DHT22;11023;48.274;7.794;2022-12-29T06:19:18;12.50;99.90
21722;DHT22;11023;48.274;7.794;2022-12-29T06:21:44;12.50;99.90
21722;DHT22;11023;48.274;7.794;2022-12-29T06:24:10;12.40;99.90
21722;DHT22;11023;48.274;7.794;2022-12-29T06:26:36;12.40;99.90
21722;DHT22;11023;48.274;7.794;2022-12-29T06:29:02;12.30;99.90
21722;DHT22;11023;48.274;7.794;2022-12-29T06:31:28;12.30;99.90
21722;DHT22;11023;48.274;7.794;2022-12-29T06:33:54;12.20;99.90
21722;DHT22;11023;48.274;7.794;2022-12-29T06:36:20;12.20;99.90
21722;DHT22;11023;48.274;7.794;2022-12-29T06:38:46;12.20;99.90
21722;DHT22;11023;48.274;7.794;2022-12-29T06:41:12;12.30;99.90
21722;DHT22;11023;48.274;7.794;2022-12-29T06:43:37;12.30;99.90
21722;DHT22;11023;48.274;7.794;2022-12-29T06:46:04;12.30;99.90
21722;DHT22;11023;48.274;7.794;2022-12-29T06:48:30;12.30;99.90
21722;DHT22;11023;48.274;7.794;2022-12-29T06:50:56;12.40;99.90
21722;DHT22;11023;48.274;7.794;2022-12-29T06:53:22;12.40;99.90
21722;DHT22;11023;48.274;7.794;2022-12-29T06:55:48;12.40;99.90
21722;DHT22;11023;48.274;7.794;2022-12-29T06:58:13;12.40;99.90
21722;DHT22;11023;48.274;7.794;2022-12-29T07:00:39;12.50;99.90
21722;DHT22;11023;48.274;7.794;2022-12-29T07:03:06;12.50;99.90
21722;DHT22;11023;48.274;7.794;2022-12-29T07:05:33;12.50;99.90
21722;DHT22;11023;48.274;7.794;2022-12-29T07:07:58;12.50;99.90
21722;DHT22;11023;48.274;7.794;2022-12-29T07:10:24;12.50;99.90
21722;DHT22;11023;48.274;7.794;2022-12-29T07:12:50;12.50;99.90
21722;DHT22;11023;48.274;7.794;2022-12-29T07:15:16;12.50;99.90
21722;DHT22;11023;48.274;7.794;2022-12-29T07:17:42;12.60;99.90
21722;DHT22;11023;48.274;7.794;2022-12-29T07:20:08;12.60;99.90
21722;DHT22;11023;48.274;7.794;2022-12-29T07:22:34;12.60;99.90
21722;DHT22;11023;48.274;7.794;2022-12-29T07:25:00;12.60;99.90
21722;DHT22;11023;48.274;7.794;2022-12-29T07:27:26;12.60;99.90
21722;DHT22;11023;48.274;7.794;2022-12-29T07:29:52;12.70;99.90
21722;DHT22;11023;48.274;7.794;2022-12-29T07:32:18;12.70;99.90
21722;DHT22;11023;48.274;7.794;2022-12-29T07:34:44;12.80;99.90
21722;DHT22;11023;48.274;7.794;2022-12-29T07:37:16;12.80;99.90
21722;DHT22;11023;48.274;7.794;2022-12-29T07:39:43;12.90;99.90
21722;DHT22;11023;48.274;7.794;2022-12-29T07:42:08;12.90;99.90
21722;DHT22;11023;48.274;7.794;2022-12-29T07:44:36;12.90;99.90
21722;DHT22;11023;48.274;7.794;2022-12-29T07:47:02;13.00;99.90
21722;DHT22;11023;48.274;7.794;2022-12-29T07:49:28;13.10;99.90
21722;DHT22;11023;48.274;7.794;2022-12-29T07:51:53;13.20;99.90
21722;DHT22;11023;48.274;7.794;2022-12-29T07:54:19;13.20;99.90
21722;DHT22;11023;48.274;7.794;2022-12-29T07:56:45;13.20;99.90
21722;DHT22;11023;48.274;7.794;2022-12-29T07:59:11;13.30;99.90
21722;DHT22;11023;48.274;7.794;2022-12-29T08:01:38;13.30;99.90
21722;DHT22;11023;48.274;7.794;2022-12-29T08:04:04;13.30;99.90
21722;DHT22;11023;48.274;7.794;2022-12-29T08:06:30;13.30;99.90
21722;DHT22;11023;48.274;7.794;2022-12-29T08:08:59;13.40;99.90
21722;DHT22;11023;48.274;7.794;2022-12-29T08:11:26;13.40;99.90
21722;DHT22;11023;48.274;7.794;2022-12-29T08:13:52;13.40;99.90
21722;DHT22;11023;48.274;7.794;2022-12-29T08:16:18;13.50;99.90
21722;DHT22;11023;48.274;7.794;2022-12-29T08:18:44;13.60;99.90
21722;DHT22;11023;48.274;7.794;2022-12-29T08:21:10;13.60;99.90
21722;DHT22;11023;48.274;7.794;2022-12-29T08:23:35;13.60;99.90
21722;DHT22;11023;48.274;7.794;2022-12-29T08:26:04;13.60;99.90
21722;DHT22;11023;48.274;7.794;2022-12-29T08:28:30;13.70;99.90
21722;DHT22;11023;48.274;7.794;2022-12-29T08:31:01;13.70;99.90
21722;DHT22;11023;48.274;7.794;2022-12-29T08:33:29;13.70;99.90
21722;DHT22;11023;48.274;7.794;2022-12-29T08:36:03;13.80;99.90
21722;DHT22;11023;48.274;7.794;2022-12-29T08:38:29;13.80;99.90
21722;DHT22;11023;48.274;7.794;2022-12-29T08:40:56;13.80;99.90
21722;DHT22;11023;48.274;7.794;2022-12-29T08:43:23;13.80;99.90
21722;DHT22;11023;48.274;7.794;2022-12-29T08:45:49;13.80;99.90
21722;DHT22;11023;48.274;7.794;2022-12-29T08:48:15;13.90;99.90
21722;DHT22;11023;48.274;7.794;2022-12-29T08:50:44;13.90;99.90
21722;DHT22;11023;48.274;7.794;2022-12-29T08:53:09;13.90;99.90
21722;DHT22;11023;48.274;7.794;2022-12-29T08:55:35;14.00;99.90
21722;DHT22;11023;48.274;7.794;2022-12-29T08:58:01;14.00;99.90
21722;DHT22;11023;48.274;7.794;2022-12-29T09:00:27;14.00;99.90
21722;DHT22;11023;48.274;7.794;2022-12-29T09:02:52;14.10;99.90
21722;DHT22;11023;48.274;7.794;2022-12-29T09:05:19;14.10;99.90
21722;DHT22;11023;48.274;7.794;2022-12-29T09:07:47;14.20;99.90
21722;DHT22;11023;48.274;7.794;2022-12-29T09:10:12;14.20;99.90
21722;DHT22;11023;48.274;7.794;2022-12-29T09:12:38;14.20;99.90
21722;DHT22;11023;48.274;7.794;2022-12-29T09:15:06;14.20;99.90
21722;DHT22;11023;48.274;7.794;2022-12-29T09:17:32;14.30;99.90
21722;DHT22;11023;48.274;7.794;2022-12-29T09:20:14;14.30;99.90
21722;DHT22;11023;48.274;7.794;2022-12-29T09:22:40;14.30;99.90
21722;DHT22;11023;48.274;7.794;2022-12-29T09:25:07;14.40;99.90
21722;DHT22;11023;48.274;7.794;2022-12-29T09:27:35;14.40;99.90
21722;DHT22;11023;48.274;7.794;2022-12-29T09:30:04;14.40;99.90
21722;DHT22;11023;48.274;7.794;2022-12-29T09:32:36;14.40;99.90
21722;DHT22;11023;48.274;7.794;2022-12-29T09:35:03;14.50;99.90
21722;DHT22;11023;48.274;7.794;2022-12-29T09:37:29;14.50;99.90
21722;DHT22;11023;48.274;7.794;2022-12-29T09:39:55;14.50;99.90
21722;DHT22;11023;48.274;7.794;2022-12-29T09:45:32;14.60;99.90
21722;DHT22;11023;48.274;7.794;2022-12-29T09:48:00;14.60;99.90
21722;DHT22;11023;48.274;7.794;2022-12-29T09:50:31;14.70;99.90
21722;DHT22;11023;48.274;7.794;2022-12-29T09:53:07;14.60;99.90
21722;DHT22;11023;48.274;7.794;2022-12-29T09:55:58;14.60;99.90
21722;DHT22;11023;48.274;7.794;2022-12-29T09:58:36;14.50;99.90
21722;DHT22;11023;48.274;7.794;2022-12-29T10:01:06;14.50;99.90
21722;DHT22;11023;48.274;7.794;2022-12-29T10:03:48;14.50;99.90
21722;DHT22;11023;48.274;7.794;2022-12-29T10:21:13;14.50;99.90
21722;DHT22;11023;48.274;7.794;2022-12-29T10:23:44;14.50;99.90
21722;DHT22;11023;48.274;7.794;2022-12-29T10:26:18;14.40;99.90
21722;DHT22;11023;48.274;7.794;2022-12-29T10:28:46;14.30;99.90
21722;DHT22;11023;48.274;7.794;2022-12-29T10:31:20;14.30;99.90
21722;DHT22;11023;48.274;7.794;2022-12-29T10:33:59;14.40;99.90
21722;DHT22;11023;48.274;7.794;2022-12-29T10:36:47;14.30;99.90
21722;DHT22;11023;48.274;7.794;2022-12-29T10:39:23;14.40;99.90
21722;DHT22;11023;48.274;7.794;2022-12-29T10:42:15;14.40;99.90
21722;DHT22;11023;48.274;7.794;2022-12-29T10:44:46;14.40;99.90
21722;DHT22;11023;48.274;7.794;2022-12-29T10:47:15;14.50;99.90
21722;DHT22;11023;48.274;7.794;2022-12-29T10:49:46;14.40;99.90
21722;DHT22;11023;48.274;7.794;2022-12-29T10:52:14;14.50;99.90
21722;DHT22;11023;48.274;7.794;2022-12-29T10:55:03;14.50;99.90
21722;DHT22;11023;48.274;7.794;2022-12-29T10:57:35;14.50;99.90
21722;DHT22;11023;48.274;7.794;2022-12-29T11:00:09;14.50;99.90
21722;DHT22;11023;48.274;7.794;2022-12-29T11:05:45;14.50;99.90
21722;DHT22;11023;48.274;7.794;2022-12-29T11:08:15;14.40;99.90
21722;DHT22;11023;48.274;7.794;2022-12-29T11:10:44;14.40;99.90
21722;DHT22;11023;48.274;7.794;2022-12-29T11:13:19;14.40;99.90
21722;DHT22;11023;48.274;7.794;2022-12-29T11:15:52;14.40;99.90
21722;DHT22;11023;48.274;7.794;2022-12-29T11:18:23;14.30;99.90
21722;DHT22;11023;48.274;7.794;2022-12-29T11:20:55;14.30;99.90
21722;DHT22;11023;48.274;7.794;2022-12-29T11:23:41;14.30;99.90
21722;DHT22;11023;48.274;7.794;2022-12-29T11:26:23;14.30;99.90
21722;DHT22;11023;48.274;7.794;2022-12-29T11:32:27;14.20;99.90
21722;DHT22;11023;48.274;7.794;2022-12-29T11:34:56;14.10;99.90
21722;DHT22;11023;48.274;7.794;2022-12-29T11:37:38;14.10;99.90
21722;DHT22;11023;48.274;7.794;2022-12-29T11:40:14;14.00;99.90
21722;DHT22;11023;48.274;7.794;2022-12-29T11:43:04;14.00;99.90
21722;DHT22;11023;48.274;7.794;2022-12-29T11:45:35;14.00;99.90
21722;DHT22;11023;48.274;7.794;2022-12-29T11:48:17;14.00;99.90
21722;DHT22;11023;48.274;7.794;2022-12-29T11:50:51;14.10;99.90
21722;DHT22;11023;48.274;7.794;2022-12-29T11:53:25;14.10;99.90
21722;DHT22;11023;48.274;7.794;2022-12-29T11:55:56;14.20;99.90
21722;DHT22;11023;48.274;7.794;2022-12-29T11:58:29;14.30;99.90
21722;DHT22;11023;48.274;7.794;2022-12-29T12:00:56;14.30;99.90
21722;DHT22;11023;48.274;7.794;2022-12-29T12:03:24;14.50;99.90
21722;DHT22;11023;48.274;7.794;2022-12-29T12:06:01;14.60;99.90
21722;DHT22;11023;48.274;7.794;2022-12-29T12:08:44;14.80;99.90
21722;DHT22;11023;48.274;7.794;2022-12-29T12:11:17;14.90;99.90
21722;DHT22;11023;48.274;7.794;2022-12-29T12:14:25;14.80;99.90
21722;DHT22;11023;48.274;7.794;2022-12-29T12:16:58;14.90;99.90
21722;DHT22;11023;48.274;7.794;2022-12-29T12:19:42;14.80;99.90
21722;DHT22;11023;48.274;7.794;2022-12-29T12:25:17;14.70;99.90
21722;DHT22;11023;48.274;7.794;2022-12-29T12:28:00;14.70;99.90
21722;DHT22;11023;48.274;7.794;2022-12-29T12:30:30;14.60;99.90
21722;DHT22;11023;48.274;7.794;2022-12-29T13:05:50;14.60;99.90
21722;DHT22;11023;48.274;7.794;2022-12-29T13:10:41;14.70;99.90
21722;DHT22;11023;48.274;7.794;2022-12-29T13:13:36;14.70;99.90
21722;DHT22;11023;48.274;7.794;2022-12-29T13:19:14;14.60;99.90
21722;DHT22;11023;48.274;7.794;2022-12-29T13:32:43;14.30;99.90
21722;DHT22;11023;48.274;7.794;2022-12-29T13:38:18;14.20;99.90
21722;DHT22;11023;48.274;7.794;2022-12-29T13:40:53;14.20;99.90
21722;DHT22;11023;48.274;7.794;2022-12-29T13:43:20;14.20;99.90
21722;DHT22;11023;48.274;7.794;2022-12-29T13:46:05;14.20;99.90
21722;DHT22;11023;48.274;7.794;2022-12-29T13:48:47;14.20;99.90
21722;DHT22;11023;48.274;7.794;2022-12-29T13:51:16;14.30;99.90
21722;DHT22;11023;48.274;7.794;2022-12-29T13:54:00;14.30;99.90
21722;DHT22;11023;48.274;7.794;2022-12-29T13:56:44;14.40;99.90
21722;DHT22;11023;48.274;7.794;2022-12-29T14:02:01;14.50;99.90
21722;DHT22;11023;48.274;7.794;2022-12-29T14:04:29;14.50;99.90
21722;DHT22;11023;48.274;7.794;2022-12-29T14:07:24;14.50;99.90
21722;DHT22;11023;48.274;7.794;2022-12-29T14:09:52;14.50;99.90
21722;DHT22;11023;48.274;7.794;2022-12-29T14:17:37;14.40;99.90
21722;DHT22;11023;48.274;7.794;2022-12-29T14:20:16;14.30;99.90
21722;DHT22;11023;48.274;7.794;2022-12-29T14:22:56;14.30;99.90
21722;DHT22;11023;48.274;7.794;2022-12-29T14:25:58;14.30;99.90
21722;DHT22;11023;48.274;7.794;2022-12-29T14:28:32;14.30;99.90
21722;DHT22;11023;48.274;7.794;2022-12-29T14:31:03;14.30;99.90
21722;DHT22;11023;48.274;7.794;2022-12-29T14:33:33;14.30;99.90
21722;DHT22;11023;48.274;7.794;2022-12-29T14:36:26;14.30;99.90
21722;DHT22;11023;48.274;7.794;2022-12-29T14:38:58;14.30;99.90
21722;DHT22;11023;48.274;7.794;2022-12-29T14:41:30;14.20;99.90
21722;DHT22;11023;48.274;7.794;2022-12-29T14:44:01;14.20;99.90
21722;DHT22;11023;48.274;7.794;2022-12-29T14:49:25;14.20;99.90
21722;DHT22;11023;48.274;7.794;2022-12-29T14:51:54;14.10;99.90
21722;DHT22;11023;48.274;7.794;2022-12-29T14:57:18;14.10;99.90
21722;DHT22;11023;48.274;7.794;2022-12-29T14:59:45;14.10;99.90
21722;DHT22;11023;48.274;7.794;2022-12-29T15:02:22;14.10;99.90
21722;DHT22;11023;48.274;7.794;2022-12-29T15:04:49;14.00;99.90
21722;DHT22;11023;48.274;7.794;2022-12-29T15:07:17;14.00;99.90
21722;DHT22;11023;48.274;7.794;2022-12-29T15:10:03;13.90;99.90
21722;DHT22;11023;48.274;7.794;2022-12-29T15:12:40;13.90;99.90
21722;DHT22;11023;48.274;7.794;2022-12-29T15:17:46;13.80;99.90
21722;DHT22;11023;48.274;7.794;2022-12-29T15:25:20;13.60;99.90
21722;DHT22;11023;48.274;7.794;2022-12-29T15:28:06;13.50;99.90
21722;DHT22;11023;48.274;7.794;2022-12-29T15:30:33;13.40;99.90
21722;DHT22;11023;48.274;7.794;2022-12-29T15:32:59;13.40;99.90
21722;DHT22;11023;48.274;7.794;2022-12-29T15:35:33;13.30;99.90
21722;DHT22;11023;48.274;7.794;2022-12-29T15:38:00;13.20;99.90
21722;DHT22;11023;48.274;7.794;2022-12-29T15:40:33;13.00;99.90
21722;DHT22;11023;48.274;7.794;2022-12-29T15:45:47;12.70;99.90
21722;DHT22;11023;48.274;7.794;2022-12-29T15:48:17;12.60;99.90
21722;DHT22;11023;48.274;7.794;2022-12-29T15:50:44;12.50;99.90
21722;DHT22;11023;48.274;7.794;2022-12-29T15:53:12;12.40;99.90
21722;DHT22;11023;48.274;7.794;2022-12-29T15:55:43;12.20;99.90
21722;DHT22;11023;48.274;7.794;2022-12-29T15:58:28;12.00;99.90
21722;DHT22;11023;48.274;7.794;2022-12-29T16:00:58;12.00;99.90
21722;DHT22;11023;48.274;7.794;2022-12-29T16:03:27;11.90;99.90
21722;DHT22;11023;48.274;7.794;2022-12-29T16:05:56;11.80;99.90
21722;DHT22;11023;48.274;7.794;2022-12-29T16:08:32;11.80;99.90
21722;DHT22;11023;48.274;7.794;2022-12-29T16:11:00;11.70;99.90
21722;DHT22;11023;48.274;7.794;2022-12-29T16:13:35;11.60;99.90
21722;DHT22;11023;48.274;7.794;2022-12-29T16:16:13;11.50;99.90
21722;DHT22;11023;48.274;7.794;2022-12-29T16:18:41;11.50;99.90
21722;DHT22;11023;48.274;7.794;2022-12-29T16:21:31;11.50;99.90
21722;DHT22;11023;48.274;7.794;2022-12-29T16:24:04;11.50;99.90
21722;DHT22;11023;48.274;7.794;2022-12-29T16:26:31;11.40;99.90
21722;DHT22;11023;48.274;7.794;2022-12-29T16:29:00;11.50;99.90
21722;DHT22;11023;48.274;7.794;2022-12-29T16:31:55;11.50;99.90
21722;DHT22;11023;48.274;7.794;2022-12-29T16:37:31;11.50;99.90
21722;DHT22;11023;48.274;7.794;2022-12-29T16:40:23;11.40;99.90
21722;DHT22;11023;48.274;7.794;2022-12-29T16:42:58;11.40;99.90
21722;DHT22;11023;48.274;7.794;2022-12-29T16:48:23;11.50;99.90
21722;DHT22;11023;48.274;7.794;2022-12-29T16:50:51;11.50;99.90
21722;DHT22;11023;48.274;7.794;2022-12-29T16:53:29;11.60;99.90
21722;DHT22;11023;48.274;7.794;2022-12-29T16:56:02;11.60;99.90
21722;DHT22;11023;48.274;7.794;2022-12-29T16:58:29;11.50;99.90
21722;DHT22;11023;48.274;7.794;2022-12-29T17:00:58;11.40;99.90
21722;DHT22;11023;48.274;7.794;2022-12-29T17:03:32;11.30;99.90
21722;DHT22;11023;48.274;7.794;2022-12-29T17:05:59;11.20;99.90
21722;DHT22;11023;48.274;7.794;2022-12-29T17:08:25;11.10;99.90
21722;DHT22;11023;48.274;7.794;2022-12-29T17:10:52;11.00;99.90
21722;DHT22;11023;48.274;7.794;2022-12-29T17:13:38;10.90;99.90
21722;DHT22;11023;48.274;7.794;2022-12-29T17:16:05;10.80;99.90
21722;DHT22;11023;48.274;7.794;2022-12-29T17:18:33;10.80;99.90
21722;DHT22;11023;48.274;7.794;2022-12-29T17:20:59;10.80;99.90
21722;DHT22;11023;48.274;7.794;2022-12-29T17:23:25;10.90;99.90
21722;DHT22;11023;48.274;7.794;2022-12-29T17:25:56;11.00;99.90
21722;DHT22;11023;48.274;7.794;2022-12-29T17:30:51;11.20;99.90
21722;DHT22;11023;48.274;7.794;2022-12-29T17:33:18;11.30;99.90
21722;DHT22;11023;48.274;7.794;2022-12-29T17:35:45;11.30;99.90
21722;DHT22;11023;48.274;7.794;2022-12-29T17:38:31;11.50;99.90
21722;DHT22;11023;48.274;7.794;2022-12-29T17:40:59;11.50;99.90
21722;DHT22;11023;48.274;7.794;2022-12-29T17:43:25;11.60;99.90
21722;DHT22;11023;48.274;7.794;2022-12-29T17:45:56;11.70;99.90
21722;DHT22;11023;48.274;7.794;2022-12-29T17:48:22;11.80;99.90
21722;DHT22;11023;48.274;7.794;2022-12-29T17:50:50;11.90;99.90
21722;DHT22;11023;48.274;7.794;2022-12-29T17:53:24;11.90;99.90
21722;DHT22;11023;48.274;7.794;2022-12-29T17:55:51;12.00;99.90
21722;DHT22;11023;48.274;7.794;2022-12-29T17:58:19;12.10;99.90
21722;DHT22;11023;48.274;7.794;2022-12-29T18:00:47;12.10;99.90
21722;DHT22;11023;48.274;7.794;2022-12-29T18:03:29;12.20;99.90
21722;DHT22;11023;48.274;7.794;2022-12-29T18:05:55;12.30;99.90
21722;DHT22;11023;48.274;7.794;2022-12-29T18:08:21;12.30;99.90
21722;DHT22;11023;48.274;7.794;2022-12-29T18:10:50;12.20;99.90
21722;DHT22;11023;48.274;7.794;2022-12-29T18:13:24;12.30;99.90
21722;DHT22;11023;48.274;7.794;2022-12-29T18:15:51;12.20;99.90
21722;DHT22;11023;48.274;7.794;2022-12-29T18:18:23;12.30;99.90
21722;DHT22;11023;48.274;7.794;2022-12-29T18:20:51;12.20;99.90
21722;DHT22;11023;48.274;7.794;2022-12-29T18:23:29;12.20;99.90